Time;durP1;ratioP1;P1;durP2;ratioP2;P2;SDS_P1;SDS_P2;PMS_P1;PMS_P2;Temp;Humidity;BMP_temperature;BMP_pressure;BME280_temperature;BME280_humidity;BME280_pressure;Samples;Min_cycle;Max_cycle;Signal;HPM_P1;HPM_P2
2021/07/20 00:00:35;;;;;;;6.53;5.43;;;;;;;;;;5023267;28;20049;-72
2021/07/20 00:03:02;;;;;;;7.25;5.47;;;;;;;;;;5020543;28;20128;-71
2021/07/20 00:05:29;;;;;;;8.23;5.80;;;;;;;;;;5023688;28;20026;-72
2021/07/20 00:07:57;;;;;;;8.02;5.97;;;;;;;;;;5027074;28;20030;-72
2021/07/20 00:10:25;;;;;;;6.10;5.45;;;;;;;;;;5021289;28;20533;-71
2021/07/20 00:12:52;;;;;;;6.95;5.20;;;;;;;;;;5021598;28;20386;-71
2021/07/20 00:15:18;;;;;;;6.32;5.32;;;;;;;;;;5024105;28;20465;-71
2021/07/20 00:17:46;;;;;;;7.35;5.70;;;;;;;;;;5027139;28;20049;-72
2021/07/20 00:20:13;;;;;;;5.90;5.30;;;;;;;;;;5019547;28;20040;-71
2021/07/20 00:22:39;;;;;;;7.63;5.63;;;;;;;;;;5019077;28;20231;-71
2021/07/20 00:25:06;;;;;;;6.22;5.53;;;;;;;;;;5028687;28;20033;-71
2021/07/20 00:27:33;;;;;;;7.25;6.00;;;;;;;;;;5022596;28;20051;-72
2021/07/20 00:29:59;;;;;;;9.18;5.43;;;;;;;;;;5024037;28;20060;-72
2021/07/20 00:32:25;;;;;;;7.72;5.93;;;;;;;;;;5013664;28;20030;-71
2021/07/20 00:34:51;;;;;;;9.80;5.40;;;;;;;;;;5022193;28;20036;-71
2021/07/20 00:37:18;;;;;;;6.90;5.93;;;;;;;;;;5022719;28;20032;-71
2021/07/20 00:39:44;;;;;;;8.05;5.40;;;;;;;;;;5022099;28;20021;-71
2021/07/20 00:42:10;;;;;;;7.22;5.68;;;;;;;;;;5016443;28;20087;-71
2021/07/20 00:44:36;;;;;;;6.13;5.53;;;;;;;;;;5022563;28;20429;-72
2021/07/20 00:47:03;;;;;;;7.65;5.57;;;;;;;;;;5026466;28;20025;-70
2021/07/20 00:49:29;;;;;;;7.22;5.22;;;;;;;;;;5019502;28;20057;-71
2021/07/20 00:51:55;;;;;;;8.18;4.93;;;;;;;;;;5022593;28;20044;-71
2021/07/20 00:54:21;;;;;;;6.53;5.70;;;;;;;;;;5021662;28;20026;-72
2021/07/20 00:56:47;;;;;;;6.47;5.35;;;;;;;;;;5023746;28;20033;-71
2021/07/20 00:59:14;;;;;;;6.75;5.30;;;;;;;;;;5021626;28;20035;-71
2021/07/20 01:01:40;;;;;;;6.60;5.82;;;;;;;;;;5015973;28;20037;-72
2021/07/20 01:04:07;;;;;;;6.55;5.55;;;;;;;;;;5015732;28;20055;-71
2021/07/20 01:06:34;;;;;;;6.28;5.25;;;;;;;;;;5011597;28;20093;-71
2021/07/20 01:09:03;;;;;;;8.93;5.82;;;;;;;;;;5016012;28;20084;-71
2021/07/20 01:11:30;;;;;;;8.13;5.53;;;;;;;;;;5013840;28;20061;-71
2021/07/20 01:13:56;;;;;;;6.60;5.43;;;;;;;;;;5015146;28;20052;-70
2021/07/20 01:16:24;;;;;;;6.25;5.65;;;;;;;;;;5012848;28;20071;-71
2021/07/20 01:18:50;;;;;;;6.97;5.38;;;;;;;;;;5021349;28;20116;-71
2021/07/20 01:21:17;;;;;;;5.95;5.13;;;;;;;;;;5016304;28;20018;-72
2021/07/20 01:23:46;;;;;;;6.97;5.55;;;;;;;;;;5014711;28;20110;-71
2021/07/20 01:26:12;;;;;;;8.70;6.03;;;;;;;;;;5021898;28;20026;-71
2021/07/20 01:28:42;;;;;;;6.88;6.07;;;;;;;;;;5022013;28;20026;-72
2021/07/20 01:31:12;;;;;;;6.40;5.25;;;;;;;;;;5016775;28;20060;-70
2021/07/20 01:33:43;;;;;;;7.03;5.95;;;;;;;;;;5019058;28;21007;-70
2021/07/20 01:36:10;;;;;;;6.13;5.53;;;;;;;;;;5018932;28;20030;-71
2021/07/20 01:38:37;;;;;;;7.57;5.40;;;;;;;;;;5010629;28;20450;-71
2021/07/20 01:41:06;;;;;;;7.60;5.40;;;;;;;;;;5018691;28;20040;-70
2021/07/20 01:43:33;;;;;;;6.68;5.20;;;;;;;;;;5024144;28;20120;-71
2021/07/20 01:46:00;;;;;;;7.90;6.03;;;;;;;;;;5015570;28;20478;-72
2021/07/20 01:48:28;;;;;;;6.82;5.45;;;;;;;;;;5014025;28;20022;-70
2021/07/20 01:50:56;;;;;;;7.05;5.35;;;;;;;;;;5012979;28;20022;-71
2021/07/20 01:53:22;;;;;;;6.68;5.85;;;;;;;;;;5023233;28;20104;-71
2021/07/20 01:55:49;;;;;;;6.00;5.25;;;;;;;;;;5018934;28;20117;-72
2021/07/20 01:58:15;;;;;;;6.30;5.70;;;;;;;;;;5012243;28;20583;-71
2021/07/20 02:00:42;;;;;;;6.18;5.57;;;;;;;;;;5019646;28;20021;-71
2021/07/20 02:08:44;;;;;;;9.48;5.85;;;;;;;;;;5024600;28;20120;-71
2021/07/20 02:11:17;;;;;;;11.48;6.28;;;;;;;;;;5023587;28;20030;-71
2021/07/20 02:13:50;;;;;;;7.20;5.95;;;;;;;;;;5014426;28;20094;-71
2021/07/20 02:16:17;;;;;;;7.30;6.55;;;;;;;;;;5012935;28;20036;-71
2021/07/20 02:18:45;;;;;;;7.50;5.90;;;;;;;;;;5011979;28;20056;-71
2021/07/20 02:21:11;;;;;;;9.65;5.95;;;;;;;;;;5017955;28;20356;-71
2021/07/20 02:23:38;;;;;;;7.50;6.03;;;;;;;;;;5015396;28;20038;-70
2021/07/20 02:26:04;;;;;;;8.63;6.97;;;;;;;;;;5016565;28;20835;-71
2021/07/20 02:28:31;;;;;;;9.50;6.30;;;;;;;;;;5010938;28;20029;-72
2021/07/20 02:30:59;;;;;;;6.90;5.88;;;;;;;;;;5012522;28;20022;-72
2021/07/20 02:33:25;;;;;;;7.20;6.45;;;;;;;;;;5015857;28;20029;-73
2021/07/20 02:35:52;;;;;;;8.50;6.38;;;;;;;;;;5018454;28;20413;-71
2021/07/20 02:38:19;;;;;;;7.85;6.50;;;;;;;;;;5019291;28;20057;-71
2021/07/20 02:40:46;;;;;;;8.80;6.28;;;;;;;;;;5014121;28;20428;-71
2021/07/20 02:43:14;;;;;;;8.88;6.60;;;;;;;;;;5009017;28;20037;-72
2021/07/20 02:45:40;;;;;;;8.27;6.60;;;;;;;;;;5020039;28;20091;-71
2021/07/20 02:48:07;;;;;;;9.52;6.35;;;;;;;;;;5019763;28;20033;-71
2021/07/20 02:50:34;;;;;;;7.20;6.50;;;;;;;;;;5017270;28;20021;-72
2021/07/20 02:53:01;;;;;;;7.95;6.40;;;;;;;;;;5010000;28;20440;-71
2021/07/20 02:55:27;;;;;;;7.13;6.43;;;;;;;;;;5015281;28;20475;-72
2021/07/20 02:57:54;;;;;;;7.72;6.30;;;;;;;;;;5009857;28;20116;-71
2021/07/20 03:00:21;;;;;;;7.25;6.25;;;;;;;;;;5024345;28;20793;-71
2021/07/20 03:02:49;;;;;;;8.60;6.50;;;;;;;;;;5007020;28;20423;-72
2021/07/20 03:05:15;;;;;;;7.47;6.78;;;;;;;;;;5011367;28;20033;-72
2021/07/20 03:07:45;;;;;;;8.63;6.53;;;;;;;;;;5006052;28;20108;-71
2021/07/20 03:10:11;;;;;;;7.78;6.90;;;;;;;;;;5011793;28;20036;-72
2021/07/20 03:12:39;;;;;;;10.85;6.78;;;;;;;;;;5007789;28;20104;-70
2021/07/20 03:15:05;;;;;;;7.30;6.60;;;;;;;;;;5009782;28;20462;-71
2021/07/20 03:17:32;;;;;;;10.70;7.43;;;;;;;;;;5009886;28;20041;-71
2021/07/20 03:19:59;;;;;;;9.13;6.32;;;;;;;;;;5008020;28;20745;-71
2021/07/20 03:22:27;;;;;;;9.18;7.28;;;;;;;;;;5007332;28;20049;-71
2021/07/20 03:24:55;;;;;;;6.63;5.93;;;;;;;;;;5018491;28;20041;-72
2021/07/20 03:27:22;;;;;;;8.52;6.55;;;;;;;;;;5012522;28;20394;-71
2021/07/20 03:29:49;;;;;;;8.77;7.30;;;;;;;;;;5007097;28;20037;-72
2021/07/20 03:32:16;;;;;;;8.70;6.40;;;;;;;;;;5008268;28;20025;-71
2021/07/20 03:34:44;;;;;;;7.40;6.03;;;;;;;;;;5010463;28;20146;-71
2021/07/20 03:37:11;;;;;;;8.38;6.47;;;;;;;;;;5016816;28;20028;-72
2021/07/20 03:39:37;;;;;;;8.95;6.80;;;;;;;;;;5010200;28;20855;-70
2021/07/20 03:42:04;;;;;;;7.97;6.50;;;;;;;;;;5010870;28;20037;-71
2021/07/20 03:44:31;;;;;;;6.82;6.13;;;;;;;;;;5010476;28;20038;-71
2021/07/20 03:46:58;;;;;;;9.50;6.65;;;;;;;;;;5009969;28;20112;-71
2021/07/20 03:49:28;;;;;;;6.97;6.20;;;;;;;;;;5013092;28;20401;-71
2021/07/20 03:51:58;;;;;;;6.25;5.53;;;;;;;;;;5018885;28;20087;-70
2021/07/20 03:54:24;;;;;;;7.25;6.30;;;;;;;;;;5016996;28;20483;-71
2021/07/20 03:56:52;;;;;;;8.85;5.70;;;;;;;;;;5005416;28;20030;-72
2021/07/20 03:59:19;;;;;;;8.90;6.00;;;;;;;;;;5013724;28;20022;-72
2021/07/20 04:01:48;;;;;;;6.50;5.88;;;;;;;;;;5010750;28;20029;-72
2021/07/20 04:04:15;;;;;;;7.85;6.30;;;;;;;;;;5017767;28;20088;-71
2021/07/20 04:06:41;;;;;;;6.47;5.88;;;;;;;;;;5014231;28;20462;-71
2021/07/20 04:09:08;;;;;;;6.93;6.00;;;;;;;;;;5017894;28;20029;-72
2021/07/20 04:11:35;;;;;;;7.47;5.75;;;;;;;;;;5015307;28;20033;-71
2021/07/20 04:14:02;;;;;;;6.90;6.20;;;;;;;;;;5011050;28;20026;-72
2021/07/20 04:16:30;;;;;;;6.90;6.03;;;;;;;;;;5019085;28;20120;-72
2021/07/20 04:18:56;;;;;;;9.07;6.20;;;;;;;;;;5023506;28;20048;-71
2021/07/20 04:21:22;;;;;;;8.80;6.15;;;;;;;;;;5023717;28;20029;-71
2021/07/20 04:23:50;;;;;;;7.28;6.57;;;;;;;;;;5022988;28;21082;-71
2021/07/20 04:26:17;;;;;;;6.78;5.97;;;;;;;;;;5023781;28;20053;-71
2021/07/20 04:28:44;;;;;;;7.00;6.30;;;;;;;;;;5023552;28;20516;-70
2021/07/20 04:31:10;;;;;;;7.90;6.55;;;;;;;;;;5021840;28;20092;-72
2021/07/20 04:33:37;;;;;;;7.90;6.47;;;;;;;;;;5022538;28;20116;-71
2021/07/20 04:36:04;;;;;;;7.50;6.57;;;;;;;;;;5023338;28;20499;-71
2021/07/20 04:38:36;;;;;;;7.32;6.47;;;;;;;;;;5022947;28;20112;-72
2021/07/20 04:41:03;;;;;;;9.65;6.38;;;;;;;;;;5023272;28;20021;-71
2021/07/20 04:43:29;;;;;;;8.95;6.97;;;;;;;;;;5022724;28;20040;-72
2021/07/20 04:45:56;;;;;;;7.35;6.65;;;;;;;;;;5021235;28;20033;-70
2021/07/20 04:48:23;;;;;;;8.45;6.88;;;;;;;;;;5023444;28;20075;-71
2021/07/20 04:50:51;;;;;;;7.82;6.97;;;;;;;;;;5022912;28;20018;-71
2021/07/20 04:53:17;;;;;;;7.20;6.50;;;;;;;;;;5022885;28;20025;-71
2021/07/20 04:55:44;;;;;;;12.13;8.13;;;;;;;;;;5021219;28;20032;-71
2021/07/20 04:58:11;;;;;;;13.82;9.75;;;;;;;;;;5023239;28;20029;-71
2021/07/20 05:00:37;;;;;;;15.15;9.95;;;;;;;;;;5022218;28;20099;-70
2021/07/20 05:03:04;;;;;;;16.02;10.43;;;;;;;;;;5022227;28;20037;-71
2021/07/20 05:05:32;;;;;;;41.40;28.77;;;;;;;;;;5021357;28;20052;-72
2021/07/20 05:07:58;;;;;;;39.10;26.85;;;;;;;;;;5021802;28;20482;-72
2021/07/20 05:10:25;;;;;;;59.92;41.95;;;;;;;;;;5021941;28;20504;-72
2021/07/20 05:12:51;;;;;;;62.97;42.90;;;;;;;;;;5021771;28;20021;-72
2021/07/20 05:15:19;;;;;;;25.58;19.45;;;;;;;;;;5019709;28;20032;-73
2021/07/20 05:17:45;;;;;;;20.67;13.98;;;;;;;;;;5022091;28;20041;-73
2021/07/20 05:20:13;;;;;;;10.13;8.20;;;;;;;;;;5021994;28;20068;-73
2021/07/20 05:22:40;;;;;;;12.43;8.20;;;;;;;;;;5022665;28;20124;-72
2021/07/20 05:25:07;;;;;;;13.48;8.50;;;;;;;;;;5020277;28;20029;-72
2021/07/20 05:27:37;;;;;;;11.10;7.53;;;;;;;;;;5022468;28;20036;-72
2021/07/20 05:30:04;;;;;;;9.82;7.18;;;;;;;;;;5021858;28;20033;-72
2021/07/20 05:32:31;;;;;;;11.15;7.32;;;;;;;;;;5021170;28;20101;-71
2021/07/20 05:34:58;;;;;;;11.65;6.63;;;;;;;;;;5020357;28;20060;-72
2021/07/20 05:37:24;;;;;;;7.35;5.95;;;;;;;;;;5022036;28;20064;-72
2021/07/20 05:39:51;;;;;;;7.65;6.93;;;;;;;;;;5021315;28;20021;-73
2021/07/20 05:42:18;;;;;;;7.35;6.60;;;;;;;;;;5020052;28;20029;-71
2021/07/20 05:44:45;;;;;;;7.78;6.30;;;;;;;;;;5022038;28;20505;-71
2021/07/20 05:47:12;;;;;;;9.57;6.15;;;;;;;;;;5021133;28;20040;-71
2021/07/20 05:49:39;;;;;;;9.77;6.95;;;;;;;;;;5021937;28;20033;-71
2021/07/20 05:52:05;;;;;;;6.85;5.45;;;;;;;;;;5019229;28;20033;-71
2021/07/20 05:54:32;;;;;;;10.95;6.53;;;;;;;;;;5013992;28;20032;-72
2021/07/20 05:56:59;;;;;;;7.28;6.05;;;;;;;;;;5022083;28;20038;-71
2021/07/20 05:59:25;;;;;;;7.88;6.78;;;;;;;;;;5019028;28;20538;-72
2021/07/20 06:01:52;;;;;;;8.55;6.50;;;;;;;;;;5021239;28;20208;-71
2021/07/20 06:04:19;;;;;;;8.32;6.53;;;;;;;;;;5020998;28;20040;-73
2021/07/20 06:06:48;;;;;;;7.95;6.55;;;;;;;;;;5020172;28;20028;-71
2021/07/20 06:09:16;;;;;;;6.60;5.78;;;;;;;;;;5021159;28;20040;-71
2021/07/20 06:11:43;;;;;;;7.03;5.63;;;;;;;;;;5021231;28;20385;-72
2021/07/20 06:14:11;;;;;;;8.38;6.68;;;;;;;;;;5021725;28;20063;-71
2021/07/20 06:16:40;;;;;;;6.38;5.78;;;;;;;;;;5020329;28;20588;-72
2021/07/20 06:19:06;;;;;;;9.45;5.82;;;;;;;;;;5020051;28;20048;-71
2021/07/20 06:21:35;;;;;;;6.57;5.70;;;;;;;;;;5020374;28;20037;-71
2021/07/20 06:24:02;;;;;;;7.68;5.85;;;;;;;;;;5020984;28;20037;-72
2021/07/20 06:26:28;;;;;;;7.25;6.13;;;;;;;;;;5019701;28;20477;-72
2021/07/20 06:28:56;;;;;;;6.47;5.10;;;;;;;;;;5019918;28;20029;-71
2021/07/20 06:31:23;;;;;;;6.18;5.57;;;;;;;;;;5020585;28;20026;-71
2021/07/20 06:33:50;;;;;;;6.63;5.65;;;;;;;;;;5021070;28;20055;-72
2021/07/20 06:36:17;;;;;;;6.35;5.75;;;;;;;;;;5015950;28;20037;-71
2021/07/20 06:38:43;;;;;;;7.65;5.93;;;;;;;;;;5024394;28;20036;-71
2021/07/20 06:41:10;;;;;;;7.30;5.20;;;;;;;;;;5020355;28;20128;-71
2021/07/20 06:43:37;;;;;;;7.30;5.85;;;;;;;;;;5021783;28;20123;-71
2021/07/20 06:46:04;;;;;;;7.30;6.32;;;;;;;;;;5022492;28;20029;-71
2021/07/20 06:48:30;;;;;;;10.23;6.82;;;;;;;;;;5022082;28;20065;-71
2021/07/20 06:50:56;;;;;;;7.05;6.35;;;;;;;;;;5023640;28;20572;-70
2021/07/20 06:53:23;;;;;;;9.50;6.43;;;;;;;;;;5023006;28;20509;-71
2021/07/20 06:55:50;;;;;;;6.68;6.00;;;;;;;;;;5023561;28;20724;-71
2021/07/20 06:58:20;;;;;;;7.90;6.20;;;;;;;;;;5022980;28;20029;-71
2021/07/20 07:00:52;;;;;;;7.50;6.80;;;;;;;;;;5024374;28;20055;-71
2021/07/20 07:03:20;;;;;;;7.15;6.10;;;;;;;;;;5020794;28;20544;-70
2021/07/20 07:05:47;;;;;;;6.90;6.10;;;;;;;;;;5014817;28;20037;-71
2021/07/20 07:08:14;;;;;;;6.80;5.90;;;;;;;;;;5015316;28;20143;-72
2021/07/20 07:10:40;;;;;;;6.85;6.07;;;;;;;;;;5013833;28;20901;-70
2021/07/20 07:13:08;;;;;;;6.53;5.93;;;;;;;;;;5005623;28;20568;-71
2021/07/20 07:15:35;;;;;;;10.35;6.88;;;;;;;;;;5030923;28;20045;-71
2021/07/20 07:18:01;;;;;;;8.55;6.70;;;;;;;;;;5007696;28;20057;-70
2021/07/20 07:20:28;;;;;;;7.60;6.40;;;;;;;;;;5023420;28;20463;-70
2021/07/20 07:22:55;;;;;;;6.97;6.32;;;;;;;;;;5023127;28;20041;-70
2021/07/20 07:25:22;;;;;;;7.78;6.80;;;;;;;;;;5022118;28;20030;-71
2021/07/20 07:27:49;;;;;;;7.43;6.35;;;;;;;;;;5003317;28;20594;-71
2021/07/20 07:30:16;;;;;;;8.25;6.10;;;;;;;;;;5020425;28;20033;-71
2021/07/20 07:32:43;;;;;;;8.77;6.47;;;;;;;;;;5020329;28;20021;-71
2021/07/20 07:35:10;;;;;;;11.30;6.72;;;;;;;;;;5022351;28;20026;-71
2021/07/20 07:37:36;;;;;;;9.55;6.60;;;;;;;;;;5022231;28;20116;-71
2021/07/20 07:40:04;;;;;;;7.28;6.18;;;;;;;;;;5024406;28;20456;-70
2021/07/20 07:42:31;;;;;;;9.38;6.28;;;;;;;;;;5026288;28;20042;-70
2021/07/20 07:44:58;;;;;;;9.18;6.15;;;;;;;;;;5026142;28;20032;-71
2021/07/20 07:47:25;;;;;;;11.50;6.22;;;;;;;;;;5026227;28;20017;-71
2021/07/20 07:49:52;;;;;;;7.68;6.05;;;;;;;;;;5026233;28;20026;-71
2021/07/20 07:52:18;;;;;;;7.68;6.57;;;;;;;;;;5025859;28;20029;-71
2021/07/20 07:54:47;;;;;;;7.53;6.43;;;;;;;;;;5023765;28;20022;-71
2021/07/20 07:57:16;;;;;;;6.55;5.85;;;;;;;;;;5026115;28;20558;-71
2021/07/20 07:59:43;;;;;;;6.35;5.65;;;;;;;;;;5025060;28;20795;-71
2021/07/20 08:02:12;;;;;;;8.23;6.43;;;;;;;;;;5025482;28;20210;-71
2021/07/20 08:04:40;;;;;;;6.90;6.03;;;;;;;;;;5024547;28;20025;-71
2021/07/20 08:07:06;;;;;;;13.23;7.40;;;;;;;;;;5024107;28;20486;-71
2021/07/20 08:09:33;;;;;;;7.97;6.25;;;;;;;;;;5024886;28;20090;-71
2021/07/20 08:12:01;;;;;;;7.45;6.22;;;;;;;;;;5024755;28;20026;-71
2021/07/20 08:14:28;;;;;;;7.28;5.50;;;;;;;;;;5024565;28;20025;-71
2021/07/20 08:17:01;;;;;;;7.03;6.30;;;;;;;;;;5022677;28;20056;-71
2021/07/20 08:19:31;;;;;;;6.97;5.50;;;;;;;;;;5024638;28;20028;-71
2021/07/20 08:21:59;;;;;;;7.88;6.20;;;;;;;;;;5024397;28;20033;-71
2021/07/20 08:24:26;;;;;;;7.57;6.78;;;;;;;;;;5024273;28;20029;-71
2021/07/20 08:26:57;;;;;;;7.00;6.13;;;;;;;;;;5023812;28;20017;-70
2021/07/20 08:29:26;;;;;;;6.97;6.32;;;;;;;;;;5024223;28;20041;-70
2021/07/20 08:32:02;;;;;;;6.95;6.25;;;;;;;;;;5022391;28;20064;-71
2021/07/20 08:34:29;;;;;;;7.07;6.32;;;;;;;;;;5024152;28;20433;-71
2021/07/20 08:36:56;;;;;;;6.93;6.10;;;;;;;;;;5023938;28;20505;-71
2021/07/20 08:39:25;;;;;;;6.95;6.28;;;;;;;;;;5022570;28;20397;-72
2021/07/20 08:42:06;;;;;;;6.72;5.28;;;;;;;;;;5022082;28;20022;-72
2021/07/20 08:44:40;;;;;;;7.88;6.95;;;;;;;;;;5023897;28;20037;-70
2021/07/20 08:47:06;;;;;;;7.57;6.10;;;;;;;;;;5024039;28;20017;-71
2021/07/20 08:49:45;;;;;;;6.47;5.78;;;;;;;;;;5023799;28;20260;-71
2021/07/20 08:52:45;;;;;;;6.80;6.10;;;;;;;;;;5023680;28;20029;-70
2021/07/20 08:55:22;;;;;;;6.60;5.95;;;;;;;;;;5002009;28;20046;-70
2021/07/20 08:57:56;;;;;;;7.82;5.88;;;;;;;;;;5021430;28;20045;-71
2021/07/20 09:00:23;;;;;;;7.40;5.78;;;;;;;;;;5024006;28;20026;-70
2021/07/20 09:03:09;;;;;;;7.65;6.47;;;;;;;;;;5023054;28;20036;-71
2021/07/20 09:05:42;;;;;;;6.57;5.88;;;;;;;;;;5001858;28;20517;-71
2021/07/20 09:08:17;;;;;;;8.68;6.15;;;;;;;;;;5010391;28;20033;-71
2021/07/20 09:10:51;;;;;;;6.53;5.68;;;;;;;;;;5022262;28;20022;-71
2021/07/20 09:13:23;;;;;;;6.43;5.75;;;;;;;;;;5023543;28;20020;-71
2021/07/20 09:15:54;;;;;;;6.93;5.82;;;;;;;;;;5023771;28;20021;-71
2021/07/20 09:18:35;;;;;;;9.73;5.88;;;;;;;;;;5023129;28;20049;-71
2021/07/20 09:21:04;;;;;;;5.50;5.00;;;;;;;;;;5022802;28;20934;-71
2021/07/20 09:23:39;;;;;;;8.07;5.93;;;;;;;;;;5022804;28;20041;-71
2021/07/20 09:26:05;;;;;;;7.97;6.43;;;;;;;;;;5022802;28;20072;-70
2021/07/20 09:28:40;;;;;;;6.75;6.15;;;;;;;;;;5022928;28;20030;-70
2021/07/20 09:31:25;;;;;;;7.40;6.13;;;;;;;;;;5023702;28;20087;-71
2021/07/20 09:34:14;;;;;;;7.68;5.93;;;;;;;;;;5020786;28;20049;-70
2021/07/20 09:36:58;;;;;;;7.20;6.50;;;;;;;;;;5001605;28;20049;-71
2021/07/20 09:39:39;;;;;;;6.35;5.60;;;;;;;;;;5010052;28;20082;-71
2021/07/20 09:42:21;;;;;;;6.32;5.72;;;;;;;;;;5022494;28;20456;-71
2021/07/20 09:45:07;;;;;;;8.40;5.85;;;;;;;;;;5021203;28;20813;-71
2021/07/20 09:47:36;;;;;;;6.45;5.85;;;;;;;;;;5022024;28;20026;-71
2021/07/20 09:50:10;;;;;;;5.60;5.10;;;;;;;;;;5022649;28;20102;-70
2021/07/20 09:52:42;;;;;;;6.57;5.63;;;;;;;;;;5020691;28;20025;-70
2021/07/20 09:55:08;;;;;;;8.20;5.95;;;;;;;;;;5022654;28;20370;-70
2021/07/20 09:57:35;;;;;;;5.75;5.25;;;;;;;;;;5022538;28;20470;-70
2021/07/20 10:00:21;;;;;;;7.85;6.28;;;;;;;;;;5021318;28;20037;-71
2021/07/20 10:02:47;;;;;;;7.32;6.00;;;;;;;;;;5021572;28;20274;-71
2021/07/20 10:05:13;;;;;;;6.78;6.07;;;;;;;;;;5022392;28;20440;-71
2021/07/20 10:07:45;;;;;;;6.38;5.78;;;;;;;;;;5022432;28;20030;-70
2021/07/20 10:10:14;;;;;;;8.75;6.40;;;;;;;;;;5020265;28;20025;-71
2021/07/20 10:12:41;;;;;;;6.82;6.00;;;;;;;;;;5021862;28;20082;-70
2021/07/20 10:15:08;;;;;;;6.38;5.78;;;;;;;;;;5022271;28;20071;-71
2021/07/20 10:17:40;;;;;;;6.93;5.43;;;;;;;;;;5022267;28;20049;-70
2021/07/20 10:20:22;;;;;;;6.40;5.63;;;;;;;;;;5021907;28;20431;-71
2021/07/20 10:23:03;;;;;;;6.30;5.70;;;;;;;;;;5021590;28;20036;-71
2021/07/20 10:25:36;;;;;;;8.60;6.13;;;;;;;;;;5021727;28;20022;-70
2021/07/20 10:28:04;;;;;;;6.32;5.35;;;;;;;;;;5022027;28;20049;-70
2021/07/20 10:30:35;;;;;;;6.18;5.43;;;;;;;;;;5021721;28;20065;-71
2021/07/20 10:33:20;;;;;;;6.35;5.75;;;;;;;;;;5020067;28;20104;-71
2021/07/20 10:36:08;;;;;;;6.72;5.90;;;;;;;;;;5003702;28;20022;-71
2021/07/20 10:38:46;;;;;;;7.03;5.65;;;;;;;;;;5018005;28;20033;-71
2021/07/20 10:41:16;;;;;;;8.63;6.03;;;;;;;;;;5021684;28;20370;-71
2021/07/20 10:44:05;;;;;;;7.18;5.75;;;;;;;;;;5021357;28;20041;-71
2021/07/20 10:46:33;;;;;;;6.80;5.63;;;;;;;;;;5020101;28;20501;-71
2021/07/20 10:49:18;;;;;;;6.93;6.28;;;;;;;;;;5021350;28;20045;-70
2021/07/20 10:51:46;;;;;;;6.25;5.65;;;;;;;;;;5021727;28;20025;-70
2021/07/20 10:54:26;;;;;;;6.65;6.03;;;;;;;;;;5019789;28;20024;-70
2021/07/20 10:56:56;;;;;;;5.73;5.23;;;;;;;;;;5021538;28;20497;-70
2021/07/20 10:59:28;;;;;;;6.53;5.93;;;;;;;;;;5021433;28;20029;-71
2021/07/20 11:02:10;;;;;;;6.78;6.07;;;;;;;;;;5020205;28;20040;-71
2021/07/20 11:04:46;;;;;;;7.40;5.88;;;;;;;;;;5021054;28;20037;-71
2021/07/20 11:07:15;;;;;;;7.03;6.28;;;;;;;;;;5019724;28;20108;-71
2021/07/20 11:09:41;;;;;;;8.90;6.00;;;;;;;;;;5020756;28;20036;-71
2021/07/20 11:12:08;;;;;;;7.68;5.60;;;;;;;;;;5021533;28;20056;-70
2021/07/20 11:14:39;;;;;;;5.68;5.07;;;;;;;;;;5024851;28;20426;-71
2021/07/20 11:17:06;;;;;;;7.22;6.20;;;;;;;;;;5023821;28;20037;-72
2021/07/20 11:19:33;;;;;;;7.13;5.65;;;;;;;;;;5025549;28;20034;-71
2021/07/20 11:22:03;;;;;;;5.93;5.40;;;;;;;;;;5024277;28;20039;-73
2021/07/20 11:24:29;;;;;;;6.32;5.72;;;;;;;;;;5024310;28;21031;-74
2021/07/20 11:26:57;;;;;;;6.90;6.18;;;;;;;;;;5023255;28;20381;-74
2021/07/20 11:29:23;;;;;;;6.55;5.85;;;;;;;;;;5023475;28;20627;-71
2021/07/20 11:31:54;;;;;;;5.85;5.35;;;;;;;;;;5022057;28;20041;-70
2021/07/20 11:34:23;;;;;;;7.60;5.63;;;;;;;;;;5023771;28;20096;-74
2021/07/20 11:36:49;;;;;;;6.78;5.88;;;;;;;;;;5024363;28;20052;-71
2021/07/20 11:39:18;;;;;;;6.55;5.78;;;;;;;;;;5024788;28;20018;-71
2021/07/20 11:41:59;;;;;;;7.90;6.07;;;;;;;;;;5024584;28;20026;-71
2021/07/20 11:44:49;;;;;;;6.55;5.95;;;;;;;;;;5019748;28;20133;-72
2021/07/20 11:47:19;;;;;;;6.07;5.07;;;;;;;;;;5020175;28;20049;-72
2021/07/20 11:50:03;;;;;;;7.30;5.43;;;;;;;;;;5023806;28;20034;-72
2021/07/20 11:52:36;;;;;;;6.10;5.32;;;;;;;;;;5021540;28;20032;-74
2021/07/20 11:55:08;;;;;;;6.07;5.57;;;;;;;;;;5024057;28;20396;-74
2021/07/20 11:57:53;;;;;;;6.63;5.93;;;;;;;;;;5023357;28;20037;-72
2021/07/20 12:00:30;;;;;;;6.25;5.13;;;;;;;;;;5023347;28;20034;-74
2021/07/20 12:02:56;;;;;;;6.18;5.25;;;;;;;;;;5023435;28;20120;-74
2021/07/20 12:05:40;;;;;;;6.28;5.68;;;;;;;;;;5022898;28;20494;-72
2021/07/20 12:08:26;;;;;;;6.32;5.55;;;;;;;;;;5016522;28;20037;-72
2021/07/20 12:11:02;;;;;;;7.40;5.47;;;;;;;;;;5023080;28;20048;-73
2021/07/20 12:13:28;;;;;;;6.47;5.88;;;;;;;;;;5022352;28;20014;-73
2021/07/20 12:15:57;;;;;;;7.63;6.15;;;;;;;;;;5023311;28;20033;-76
2021/07/20 12:18:23;;;;;;;7.28;5.75;;;;;;;;;;5024536;28;20049;-71
2021/07/20 12:20:49;;;;;;;5.65;5.10;;;;;;;;;;5022714;28;20090;-75
2021/07/20 12:23:16;;;;;;;6.90;5.75;;;;;;;;;;5024099;28;20053;-72
2021/07/20 12:25:43;;;;;;;6.88;5.80;;;;;;;;;;5022061;28;20021;-72
2021/07/20 12:28:10;;;;;;;7.25;5.97;;;;;;;;;;5023597;28;20025;-72
2021/07/20 12:30:36;;;;;;;7.38;5.85;;;;;;;;;;5024523;28;20477;-72
2021/07/20 12:33:03;;;;;;;6.88;6.18;;;;;;;;;;5023966;28;20029;-75
2021/07/20 12:35:30;;;;;;;8.27;6.45;;;;;;;;;;5021884;28;20026;-73
2021/07/20 12:38:05;;;;;;;6.47;5.82;;;;;;;;;;5023986;28;20120;-72
2021/07/20 12:40:32;;;;;;;7.85;5.50;;;;;;;;;;5020700;28;20025;-72
2021/07/20 12:43:07;;;;;;;7.43;6.40;;;;;;;;;;5020471;28;20155;-72
2021/07/20 12:45:34;;;;;;;6.38;5.53;;;;;;;;;;5021550;28;20382;-72
2021/07/20 12:48:00;;;;;;;7.03;6.32;;;;;;;;;;5026403;28;20037;-72
2021/07/20 12:50:26;;;;;;;6.55;5.95;;;;;;;;;;5026106;28;20091;-72
2021/07/20 12:52:52;;;;;;;7.82;6.13;;;;;;;;;;5019004;28;20112;-72
2021/07/20 12:55:20;;;;;;;6.82;6.00;;;;;;;;;;5023234;28;20035;-72
2021/07/20 12:57:53;;;;;;;6.38;5.53;;;;;;;;;;5020618;28;20021;-72
2021/07/20 13:00:23;;;;;;;8.60;5.53;;;;;;;;;;5018442;28;20029;-71
2021/07/20 13:02:51;;;;;;;7.43;5.57;;;;;;;;;;5025973;28;20171;-72
2021/07/20 13:05:18;;;;;;;5.97;5.38;;;;;;;;;;5019764;28;20026;-71
2021/07/20 13:07:44;;;;;;;7.82;5.95;;;;;;;;;;5021433;28;20048;-71
2021/07/20 13:10:10;;;;;;;7.43;5.97;;;;;;;;;;5020688;28;20440;-72
2021/07/20 13:12:45;;;;;;;5.88;5.32;;;;;;;;;;5022010;28;20560;-72
2021/07/20 13:15:17;;;;;;;6.60;5.80;;;;;;;;;;5020177;28;20088;-72
2021/07/20 13:17:43;;;;;;;6.97;5.20;;;;;;;;;;5021443;28;20056;-75
2021/07/20 13:20:10;;;;;;;5.95;5.35;;;;;;;;;;5021586;28;20033;-73
2021/07/20 13:22:40;;;;;;;6.30;5.55;;;;;;;;;;5021641;28;20087;-72
2021/07/20 13:25:10;;;;;;;6.40;5.50;;;;;;;;;;5020123;28;20380;-71
2021/07/20 13:27:40;;;;;;;6.13;5.38;;;;;;;;;;5019868;28;20044;-75
2021/07/20 13:30:17;;;;;;;8.32;5.88;;;;;;;;;;5017636;28;20036;-72
2021/07/20 13:32:43;;;;;;;6.20;5.60;;;;;;;;;;5020643;28;20018;-72
2021/07/20 13:35:10;;;;;;;6.30;5.18;;;;;;;;;;5018220;28;20022;-72
2021/07/20 13:37:37;;;;;;;6.35;5.38;;;;;;;;;;5018578;28;20039;-73
2021/07/20 13:40:07;;;;;;;6.95;5.00;;;;;;;;;;5022266;28;20025;-74
2021/07/20 13:42:33;;;;;;;5.93;5.05;;;;;;;;;;5020875;28;20497;-72
2021/07/20 13:45:05;;;;;;;6.32;5.72;;;;;;;;;;5021095;28;20037;-72
2021/07/20 13:47:33;;;;;;;6.38;5.72;;;;;;;;;;5021879;28;20025;-72
2021/07/20 13:50:02;;;;;;;6.93;5.55;;;;;;;;;;5020357;28;20041;-71
2021/07/20 13:52:29;;;;;;;8.30;5.82;;;;;;;;;;5021057;28;20393;-72
2021/07/20 13:54:58;;;;;;;7.13;5.15;;;;;;;;;;5020904;28;20096;-72
2021/07/20 13:57:25;;;;;;;6.85;5.25;;;;;;;;;;5021088;28;20025;-71
2021/07/20 13:59:52;;;;;;;5.80;5.07;;;;;;;;;;5019754;28;20018;-72
2021/07/20 14:02:19;;;;;;;7.50;5.60;;;;;;;;;;5016260;28;20080;-72
2021/07/20 14:04:47;;;;;;;11.02;6.03;;;;;;;;;;5019765;28;20167;-72
2021/07/20 14:07:13;;;;;;;6.43;5.40;;;;;;;;;;5019752;28;20050;-71
2021/07/20 14:09:40;;;;;;;5.93;5.35;;;;;;;;;;5020474;28;20656;-72
2021/07/20 14:12:06;;;;;;;5.90;5.40;;;;;;;;;;5018960;28;20018;-72
2021/07/20 14:14:33;;;;;;;6.40;5.15;;;;;;;;;;5021426;28;20481;-71
2021/07/20 14:17:00;;;;;;;6.07;5.47;;;;;;;;;;5019822;28;20036;-71
2021/07/20 14:19:26;;;;;;;6.95;5.00;;;;;;;;;;5014207;28;20025;-72
2021/07/20 14:21:52;;;;;;;6.25;5.65;;;;;;;;;;5020148;28;20653;-72
2021/07/20 14:24:19;;;;;;;6.88;5.40;;;;;;;;;;5020182;28;20115;-72
2021/07/20 14:26:47;;;;;;;6.15;5.55;;;;;;;;;;5020658;28;20611;-72
2021/07/20 14:29:14;;;;;;;5.90;4.95;;;;;;;;;;5019996;28;20032;-72
2021/07/20 14:31:41;;;;;;;7.13;4.80;;;;;;;;;;5020024;28;20248;-71
2021/07/20 14:34:11;;;;;;;6.22;5.63;;;;;;;;;;5019267;28;20017;-72
2021/07/20 14:36:42;;;;;;;5.63;5.13;;;;;;;;;;5020940;28;20491;-70
2021/07/20 14:39:28;;;;;;;7.30;5.35;;;;;;;;;;5017679;28;20022;-71
2021/07/20 14:42:03;;;;;;;6.90;5.18;;;;;;;;;;5020051;28;20037;-70
2021/07/20 14:44:29;;;;;;;5.68;4.97;;;;;;;;;;5018596;28;20080;-70
2021/07/20 14:46:55;;;;;;;5.40;4.90;;;;;;;;;;5015586;28;20044;-71
2021/07/20 14:49:21;;;;;;;5.82;4.80;;;;;;;;;;5020278;28;20033;-71
2021/07/20 14:51:48;;;;;;;5.60;4.80;;;;;;;;;;5019842;28;20025;-71
2021/07/20 14:54:25;;;;;;;6.28;5.07;;;;;;;;;;5019899;28;21347;-71
2021/07/20 14:56:54;;;;;;;6.10;5.30;;;;;;;;;;5012780;28;20037;-71